Hovedside
METAR-TAF:

METAR-TAF

Lufthavner :

Princeton, Britisk Columbia, Canada

breddegrad: 49-28N, lengdegrad: 120-31W, høyde over havet: 700 m

Gjeldene værobservasjon

Denne rapporten ble laget for 50 minutter siden, klokken 22:00 UTC
Vind 8 kt fra Vest-nordvest, skiftende mellom Vest og Nord-nordøst
Temperatur 30°C
Luftfuktighet 22%
Trykk 1019 hPa
Sikt: 24.1 km
Få skyer i en høyde av 6500 ft
Få skyer i en høyde av 7500 ft
Få skyer i en høyde av 10000 ft

METAR: CYDC 172200Z 29008KT 260V030 15SM FEW065 FEW075 FEW100 30/06 A3008 RMK CU1FU1FU1 CU TR FU E-S SLP172 DENSITY ALT 4400FT

Tid: 15:50 (22:50 UTC)


TAF: fraværende

Værobservasjoner og værvarsel for over 4000 flyplasser (METAR- og TAF-rapporter).

Tilgjengelige stasjoner er representert av de røde og gule prikkene på kartet.

Hold musepekeren over prikken for å se navnet på stasjonen.

Klikk så for å se værobservasjoner og -varsler.

For å forandre kartet kan du klikke på den grønne knappen med svart kryss for å zoome inn, på den grønne knappen med strek for å zoome ut, eller på de grønne pilene for å se tilstøtende kart.


METAR-TAF: